createdAt,value
2023-07-29T00:00:04.461Z,18.32
2023-07-29T00:02:32.194Z,18.27
2023-07-29T00:04:58.726Z,18.25
2023-07-29T00:07:25.347Z,18.10
2023-07-29T00:09:51.897Z,18.10
2023-07-29T00:12:18.404Z,18.10
2023-07-29T00:14:44.887Z,18.04
2023-07-29T00:17:11.390Z,18.04
2023-07-29T00:19:37.906Z,18.03
2023-07-29T00:22:05.509Z,17.99
2023-07-29T00:24:32.084Z,17.93
2023-07-29T00:26:58.575Z,17.93
2023-07-29T00:29:25.090Z,17.91
2023-07-29T00:31:51.689Z,17.89
2023-07-29T00:34:20.801Z,17.90
2023-07-29T00:36:47.462Z,17.83
2023-07-29T00:39:14.021Z,17.81
2023-07-29T00:41:40.988Z,17.79
2023-07-29T00:44:07.561Z,17.80
2023-07-29T00:46:35.839Z,17.79
2023-07-29T00:49:02.995Z,17.79
2023-07-29T00:51:29.709Z,17.79
2023-07-29T00:53:56.247Z,17.81
2023-07-29T00:56:22.924Z,17.84
2023-07-29T00:58:49.679Z,17.85
2023-07-29T01:01:16.437Z,17.88
2023-07-29T01:03:43.154Z,17.92
2023-07-29T01:06:24.071Z,18.00
2023-07-29T01:08:56.814Z,18.06
2023-07-29T01:11:37.090Z,18.10
2023-07-29T01:14:07.132Z,18.13
2023-07-29T01:16:42.989Z,18.14
2023-07-29T01:19:16.349Z,18.08
2023-07-29T01:21:43.035Z,18.08
2023-07-29T01:24:09.595Z,18.15
2023-07-29T01:26:36.414Z,18.10
2023-07-29T01:29:03.326Z,18.19
2023-07-29T01:31:35.860Z,18.14
2023-07-29T01:34:18.554Z,18.23
2023-07-29T01:36:47.779Z,18.24
2023-07-29T01:39:15.478Z,18.25
2023-07-29T01:41:42.450Z,18.28
2023-07-29T01:44:09.149Z,18.29
2023-07-29T01:46:35.998Z,18.33
2023-07-29T01:49:02.815Z,18.38
2023-07-29T01:51:29.456Z,18.43
2023-07-29T01:53:56.769Z,18.49
2023-07-29T01:56:23.367Z,18.53
2023-07-29T01:58:49.963Z,18.37
2023-07-29T02:01:16.752Z,18.10
2023-07-29T02:03:43.326Z,18.08
2023-07-29T02:06:10.454Z,18.43
2023-07-29T02:08:36.943Z,18.64
2023-07-29T02:11:03.619Z,18.69
2023-07-29T02:13:30.171Z,18.79
2023-07-29T02:15:56.724Z,18.83
2023-07-29T02:18:23.295Z,18.81
2023-07-29T02:20:50.863Z,18.84
2023-07-29T02:23:18.682Z,18.87
2023-07-29T02:25:45.217Z,18.86
2023-07-29T02:28:11.832Z,18.80
2023-07-29T02:30:38.428Z,18.85
2023-07-29T02:33:05.059Z,18.87
2023-07-29T02:35:31.669Z,18.88
2023-07-29T02:37:58.259Z,18.86
2023-07-29T02:40:27.949Z,18.86
2023-07-29T02:42:54.495Z,18.85
2023-07-29T02:45:21.024Z,18.72
2023-07-29T02:47:48.085Z,18.73
2023-07-29T02:50:14.634Z,18.74
2023-07-29T02:52:41.221Z,18.75
2023-07-29T02:55:07.871Z,18.75
2023-07-29T02:57:34.377Z,18.75
2023-07-29T03:00:00.884Z,18.73
2023-07-29T03:02:27.467Z,18.76
2023-07-29T03:04:54.126Z,18.78
2023-07-29T03:07:21.660Z,18.72
2023-07-29T03:09:48.186Z,18.74
2023-07-29T03:12:14.679Z,18.75
2023-07-29T03:14:42.598Z,18.77
2023-07-29T03:17:09.180Z,18.72
2023-07-29T03:19:36.289Z,18.69
2023-07-29T03:22:02.944Z,18.62
2023-07-29T03:24:30.059Z,18.61
2023-07-29T03:26:56.971Z,18.56
2023-07-29T03:29:23.501Z,18.58
2023-07-29T03:31:50.094Z,18.53
2023-07-29T03:34:16.653Z,18.59
2023-07-29T03:36:43.330Z,18.55
2023-07-29T03:39:09.911Z,18.49
2023-07-29T03:41:36.484Z,18.42
2023-07-29T03:44:03.022Z,18.44
2023-07-29T03:46:29.607Z,18.41
2023-07-29T03:48:56.262Z,18.35
2023-07-29T03:51:23.462Z,18.33
2023-07-29T03:53:50.053Z,18.31
2023-07-29T03:56:16.659Z,18.33
2023-07-29T03:58:45.215Z,18.33
2023-07-29T04:01:11.823Z,18.36
2023-07-29T04:03:38.507Z,18.34
2023-07-29T04:06:05.105Z,18.39
2023-07-29T04:08:31.771Z,18.45
2023-07-29T04:10:58.604Z,18.35
2023-07-29T04:13:25.257Z,18.32
2023-07-29T04:15:51.827Z,18.35
2023-07-29T04:18:18.350Z,18.27
2023-07-29T04:20:44.984Z,18.50
2023-07-29T04:23:11.521Z,18.55
2023-07-29T04:25:38.054Z,18.47
2023-07-29T04:28:06.427Z,18.51
2023-07-29T04:30:32.989Z,18.65
2023-07-29T04:32:59.572Z,18.77
2023-07-29T04:35:26.138Z,18.55
2023-07-29T04:37:52.730Z,18.59
2023-07-29T04:40:19.566Z,18.70
2023-07-29T04:42:47.437Z,18.69
2023-07-29T04:45:14.050Z,18.75
2023-07-29T04:47:40.625Z,18.66
2023-07-29T04:50:07.546Z,18.67
2023-07-29T04:52:34.077Z,18.63
2023-07-29T04:55:00.972Z,18.51
2023-07-29T04:57:27.524Z,18.61
2023-07-29T04:59:54.059Z,18.58
2023-07-29T05:02:20.836Z,18.61
2023-07-29T05:04:47.387Z,18.69
2023-07-29T05:07:13.916Z,18.79
2023-07-29T05:09:40.446Z,18.85
2023-07-29T05:12:07.292Z,19.02
2023-07-29T05:14:33.772Z,19.03
2023-07-29T05:17:00.313Z,19.03
2023-07-29T05:19:26.931Z,18.98
2023-07-29T05:21:53.422Z,18.96
2023-07-29T05:24:20.120Z,18.97
2023-07-29T05:26:46.644Z,19.15
2023-07-29T05:29:13.251Z,18.98
2023-07-29T05:31:39.994Z,19.10
2023-07-29T05:34:06.657Z,19.14
2023-07-29T05:36:33.296Z,19.09
2023-07-29T05:38:59.897Z,19.00
2023-07-29T05:41:29.006Z,19.35
2023-07-29T05:43:55.581Z,19.42
2023-07-29T05:46:22.116Z,19.47
2023-07-29T05:48:48.713Z,19.46
2023-07-29T05:51:15.221Z,19.58
2023-07-29T05:53:41.768Z,19.66
2023-07-29T05:56:08.272Z,19.53
2023-07-29T05:58:34.837Z,19.65
2023-07-29T06:01:01.410Z,19.61
2023-07-29T06:03:28.250Z,19.67
2023-07-29T06:05:55.382Z,19.62
2023-07-29T06:08:22.040Z,19.62
2023-07-29T06:10:48.688Z,19.63
2023-07-29T06:13:15.470Z,19.60
2023-07-29T06:15:45.582Z,19.62
2023-07-29T06:18:12.164Z,19.63
2023-07-29T06:20:38.813Z,19.74
2023-07-29T06:23:06.880Z,19.60
2023-07-29T06:25:33.361Z,19.73
2023-07-29T06:27:59.979Z,19.70
2023-07-29T06:30:26.788Z,19.79
2023-07-29T06:32:53.368Z,19.92
2023-07-29T06:35:19.901Z,20.06
2023-07-29T06:37:46.491Z,20.16
2023-07-29T06:40:13.091Z,20.19
2023-07-29T06:42:39.671Z,20.25
2023-07-29T06:45:06.802Z,20.28
2023-07-29T06:47:33.430Z,20.15
2023-07-29T06:49:59.993Z,20.17
2023-07-29T06:52:26.490Z,20.40
2023-07-29T06:54:53.087Z,20.59
2023-07-29T06:57:19.630Z,20.61
2023-07-29T06:59:46.176Z,20.62
2023-07-29T07:02:12.774Z,20.51
2023-07-29T07:04:39.352Z,20.33
2023-07-29T07:07:06.189Z,20.06
2023-07-29T07:09:32.716Z,20.06
2023-07-29T07:11:59.241Z,20.16
2023-07-29T07:14:25.761Z,20.10
2023-07-29T07:16:52.347Z,19.87
2023-07-29T07:19:18.906Z,19.82
2023-07-29T07:21:45.632Z,19.96
2023-07-29T07:24:12.300Z,19.98
2023-07-29T07:26:39.018Z,20.10
2023-07-29T07:29:05.754Z,19.99
2023-07-29T07:31:34.139Z,20.04
2023-07-29T07:34:00.662Z,20.19
2023-07-29T07:36:27.179Z,20.27
2023-07-29T07:38:53.717Z,20.29
2023-07-29T07:41:20.252Z,20.32
2023-07-29T07:43:46.791Z,20.37
2023-07-29T07:46:13.408Z,20.41
2023-07-29T07:48:40.029Z,20.16
2023-07-29T07:51:13.368Z,20.34
2023-07-29T07:53:40.111Z,20.47
2023-07-29T07:56:06.643Z,20.68
2023-07-29T07:58:33.364Z,20.93
2023-07-29T08:01:04.206Z,21.03
2023-07-29T08:03:30.946Z,20.92
2023-07-29T08:05:57.599Z,20.81
2023-07-29T08:08:24.246Z,20.67
2023-07-29T08:10:50.816Z,20.86
2023-07-29T08:13:17.411Z,20.68
2023-07-29T08:15:46.751Z,20.75
2023-07-29T08:18:13.361Z,20.53
2023-07-29T08:20:39.882Z,20.73
2023-07-29T08:23:06.471Z,20.72
2023-07-29T08:25:33.063Z,20.70
2023-07-29T08:27:59.789Z,20.81
2023-07-29T08:30:26.504Z,20.84
2023-07-29T08:32:53.096Z,20.90
2023-07-29T08:35:19.667Z,20.97
2023-07-29T08:37:46.292Z,21.18
2023-07-29T08:40:14.316Z,20.84
2023-07-29T08:42:42.152Z,20.89
2023-07-29T08:45:13.034Z,21.19
2023-07-29T08:47:39.755Z,21.07
2023-07-29T08:50:06.891Z,21.27
2023-07-29T08:52:34.033Z,21.08
2023-07-29T08:55:01.791Z,21.02
2023-07-29T08:57:28.463Z,20.74
2023-07-29T08:59:56.104Z,20.70
2023-07-29T09:02:22.721Z,20.77
2023-07-29T09:04:49.448Z,20.94
2023-07-29T09:07:16.316Z,20.91
2023-07-29T09:09:42.864Z,20.39
2023-07-29T09:12:09.804Z,20.70
2023-07-29T09:14:36.296Z,20.90
2023-07-29T09:17:03.089Z,21.21
2023-07-29T09:19:29.638Z,21.46
2023-07-29T09:21:56.166Z,21.79
2023-07-29T09:24:22.801Z,21.90
2023-07-29T09:26:51.791Z,21.89
2023-07-29T09:29:22.648Z,22.09
2023-07-29T09:31:49.324Z,22.28
2023-07-29T09:34:16.787Z,22.43
2023-07-29T09:36:43.395Z,22.68
2023-07-29T09:39:14.459Z,22.86
2023-07-29T09:41:41.046Z,22.69
2023-07-29T09:44:08.671Z,22.51
2023-07-29T09:46:39.703Z,22.48
2023-07-29T09:49:07.470Z,22.50
2023-07-29T09:51:38.850Z,22.46
2023-07-29T09:54:05.925Z,22.56
2023-07-29T09:56:32.452Z,22.45
2023-07-29T09:58:59.157Z,22.65
2023-07-29T10:01:26.099Z,22.74
2023-07-29T10:03:53.161Z,22.87
2023-07-29T10:06:20.059Z,22.85
2023-07-29T10:08:46.746Z,23.03
2023-07-29T10:11:13.354Z,23.05
2023-07-29T10:13:40.376Z,23.11
2023-07-29T10:16:07.064Z,23.22
2023-07-29T10:18:34.348Z,23.26
2023-07-29T10:21:01.253Z,23.36
2023-07-29T10:23:28.698Z,23.77
2023-07-29T10:26:06.322Z,23.04
2023-07-29T10:28:33.634Z,23.32
2023-07-29T10:31:00.729Z,23.78
2023-07-29T10:33:27.986Z,23.98
2023-07-29T10:35:55.263Z,23.81
2023-07-29T10:38:25.957Z,23.39
2023-07-29T10:40:57.181Z,23.40
2023-07-29T10:43:26.555Z,23.70
2023-07-29T10:46:06.176Z,23.88
2023-07-29T10:48:44.302Z,23.93
2023-07-29T10:51:23.867Z,23.69
2023-07-29T10:53:53.584Z,23.19
2023-07-29T10:56:27.909Z,23.25
2023-07-29T10:58:56.045Z,23.28
2023-07-29T11:01:28.700Z,23.41
2023-07-29T11:04:14.199Z,23.05
2023-07-29T11:06:59.360Z,23.55
2023-07-29T11:09:44.426Z,23.52
2023-07-29T11:12:29.530Z,23.29
2023-07-29T11:14:56.105Z,23.57
2023-07-29T11:17:24.347Z,23.57
2023-07-29T11:19:51.347Z,23.50
2023-07-29T11:22:17.873Z,23.47
2023-07-29T11:24:44.435Z,22.92
2023-07-29T11:27:13.819Z,22.72
2023-07-29T11:29:40.392Z,22.85
2023-07-29T11:32:07.266Z,22.94
2023-07-29T11:34:33.936Z,23.16
2023-07-29T11:37:00.561Z,23.42
2023-07-29T11:39:27.134Z,23.17
2023-07-29T11:41:53.722Z,23.46
2023-07-29T11:44:20.544Z,23.91
2023-07-29T11:46:49.722Z,24.51
2023-07-29T11:49:16.401Z,25.27
2023-07-29T11:51:43.639Z,24.93
2023-07-29T11:54:10.266Z,25.31
2023-07-29T11:56:37.249Z,25.16
2023-07-29T11:59:04.448Z,25.25
2023-07-29T12:01:31.997Z,25.33
2023-07-29T12:03:58.930Z,25.92
2023-07-29T12:06:26.281Z,26.68
2023-07-29T12:08:54.324Z,26.41
2023-07-29T12:11:22.056Z,26.84
2023-07-29T12:13:48.610Z,27.53
2023-07-29T12:16:21.221Z,26.52
2023-07-29T12:18:49.988Z,26.80
2023-07-29T12:21:16.794Z,26.73
2023-07-29T12:23:43.522Z,27.02
2023-07-29T12:26:10.113Z,27.19
2023-07-29T12:28:36.735Z,27.64
2023-07-29T12:31:08.576Z,27.53
2023-07-29T12:33:36.402Z,29.38
2023-07-29T12:36:03.750Z,30.28
2023-07-29T12:38:30.707Z,30.05
2023-07-29T12:40:57.291Z,29.22
2023-07-29T12:43:24.104Z,28.32
2023-07-29T12:45:50.933Z,28.36
2023-07-29T12:48:17.559Z,28.27
2023-07-29T12:50:44.148Z,29.57
2023-07-29T12:53:15.824Z,30.07
2023-07-29T12:55:42.535Z,33.15
2023-07-29T12:58:12.319Z,32.89
2023-07-29T13:00:39.836Z,34.97
2023-07-29T13:03:07.314Z,34.56
2023-07-29T13:05:34.079Z,33.61
2023-07-29T13:08:01.277Z,31.48
2023-07-29T13:10:27.917Z,31.89
2023-07-29T13:12:54.427Z,32.38
2023-07-29T13:15:21.029Z,30.88
2023-07-29T13:17:47.626Z,32.63
2023-07-29T13:20:14.278Z,32.40
2023-07-29T13:22:40.806Z,31.59
2023-07-29T13:25:07.544Z,32.92
2023-07-29T13:27:34.072Z,33.85
2023-07-29T13:30:00.571Z,32.47
2023-07-29T13:32:27.213Z,30.85
2023-07-29T13:34:53.800Z,30.28
2023-07-29T13:37:20.280Z,30.74
2023-07-29T13:39:46.892Z,30.67
2023-07-29T13:42:13.468Z,30.82
2023-07-29T13:44:39.983Z,31.05
2023-07-29T13:47:07.304Z,32.09
2023-07-29T13:49:33.821Z,32.24
2023-07-29T13:52:00.391Z,33.87
2023-07-29T13:54:26.966Z,33.53
2023-07-29T13:56:55.345Z,33.70
2023-07-29T13:59:21.916Z,33.95
2023-07-29T14:01:48.526Z,36.21
2023-07-29T14:04:15.216Z,35.64
2023-07-29T14:06:46.631Z,34.60
2023-07-29T14:09:14.534Z,31.62
2023-07-29T14:11:41.078Z,29.35
2023-07-29T14:14:08.527Z,29.81
2023-07-29T14:16:35.436Z,29.74
2023-07-29T14:19:02.341Z,29.82
2023-07-29T14:21:28.879Z,29.91
2023-07-29T14:23:55.502Z,31.30
2023-07-29T14:26:22.074Z,33.37
2023-07-29T14:28:48.639Z,33.86
2023-07-29T14:31:15.230Z,32.45
2023-07-29T14:33:41.784Z,32.87
2023-07-29T14:36:09.013Z,33.73
2023-07-29T14:38:36.127Z,34.85
2023-07-29T14:41:02.885Z,35.16
2023-07-29T14:43:29.453Z,36.23
2023-07-29T14:45:56.053Z,37.86
2023-07-29T14:48:22.668Z,38.45
2023-07-29T14:50:49.370Z,37.17
2023-07-29T14:53:17.104Z,38.43
2023-07-29T14:55:43.633Z,39.20
2023-07-29T14:58:10.169Z,38.80
2023-07-29T15:00:36.728Z,39.02
2023-07-29T15:03:03.743Z,40.24
2023-07-29T15:05:30.386Z,36.00
2023-07-29T15:07:56.994Z,35.07
2023-07-29T15:10:23.618Z,36.09
2023-07-29T15:12:50.281Z,36.44
2023-07-29T15:15:16.954Z,36.83
2023-07-29T15:17:43.532Z,37.16
2023-07-29T15:20:10.491Z,37.18
2023-07-29T15:22:37.069Z,37.67
2023-07-29T15:25:03.877Z,39.76
2023-07-29T15:27:30.939Z,38.93
2023-07-29T15:29:57.947Z,37.41
2023-07-29T15:32:24.541Z,35.97
2023-07-29T15:34:51.094Z,36.31
2023-07-29T15:37:17.635Z,38.66
2023-07-29T15:39:44.114Z,39.55
2023-07-29T15:42:10.763Z,37.65
2023-07-29T15:44:38.581Z,37.05
2023-07-29T15:47:05.446Z,34.21
2023-07-29T15:49:32.037Z,33.77
2023-07-29T15:51:58.637Z,34.60
2023-07-29T15:54:25.511Z,32.75
2023-07-29T15:56:52.157Z,30.33
2023-07-29T15:59:18.814Z,29.06
2023-07-29T16:01:45.448Z,28.33
2023-07-29T16:04:12.137Z,27.79
2023-07-29T16:06:39.786Z,27.41
2023-07-29T16:09:07.692Z,26.90
2023-07-29T16:11:34.870Z,26.70
2023-07-29T16:14:01.408Z,26.47
2023-07-29T16:16:29.041Z,26.40
2023-07-29T16:18:55.584Z,26.19
2023-07-29T16:21:22.172Z,25.99
2023-07-29T16:23:53.658Z,25.01
2023-07-29T16:26:20.897Z,24.74
2023-07-29T16:28:47.557Z,24.28
2023-07-29T16:31:14.246Z,23.27
2023-07-29T16:33:40.863Z,22.48
2023-07-29T16:36:07.428Z,22.12
2023-07-29T16:38:33.898Z,21.65
2023-07-29T16:41:13.829Z,21.30
2023-07-29T16:43:46.241Z,21.04
2023-07-29T16:46:12.800Z,20.96
2023-07-29T16:48:39.439Z,20.81
2023-07-29T16:51:06.605Z,20.75
2023-07-29T16:53:34.064Z,20.69
2023-07-29T16:56:01.444Z,20.72
2023-07-29T16:58:27.931Z,20.91
2023-07-29T17:00:54.547Z,20.92
2023-07-29T17:03:21.473Z,21.10
2023-07-29T17:05:48.129Z,21.25
2023-07-29T17:08:14.630Z,21.36
2023-07-29T17:10:41.184Z,21.44
2023-07-29T17:13:07.731Z,21.35
2023-07-29T17:15:34.385Z,21.38
2023-07-29T17:18:01.057Z,21.43
2023-07-29T17:20:27.608Z,21.50
2023-07-29T17:22:54.210Z,21.27
2023-07-29T17:25:21.943Z,21.27
2023-07-29T17:27:48.556Z,21.04
2023-07-29T17:30:15.059Z,21.05
2023-07-29T17:32:41.733Z,20.60
2023-07-29T17:35:08.766Z,20.66
2023-07-29T17:37:36.066Z,20.80
2023-07-29T17:40:02.675Z,20.71
2023-07-29T17:42:29.273Z,20.68
2023-07-29T17:44:55.799Z,20.67
2023-07-29T17:47:22.356Z,20.64
2023-07-29T17:49:48.896Z,20.67
2023-07-29T17:52:15.464Z,20.73
2023-07-29T17:54:42.490Z,20.78
2023-07-29T17:57:09.041Z,20.84
2023-07-29T17:59:35.604Z,20.88
2023-07-29T18:02:02.346Z,20.99
2023-07-29T18:04:28.859Z,20.95
2023-07-29T18:06:56.771Z,20.84
2023-07-29T18:09:25.415Z,20.64
2023-07-29T18:11:51.968Z,20.52
2023-07-29T18:14:18.579Z,20.46
2023-07-29T18:16:45.280Z,20.33
2023-07-29T18:19:11.891Z,19.94
2023-07-29T18:21:38.438Z,19.90
2023-07-29T18:24:05.031Z,19.81
2023-07-29T18:26:31.643Z,19.54
2023-07-29T18:28:59.650Z,19.56
2023-07-29T18:31:26.357Z,19.64
2023-07-29T18:33:53.065Z,19.54
2023-07-29T18:36:19.622Z,19.55
2023-07-29T18:38:46.104Z,19.63
2023-07-29T18:41:12.678Z,19.66
2023-07-29T18:43:39.233Z,19.66
2023-07-29T18:46:07.325Z,19.59
2023-07-29T18:48:33.960Z,19.66
2023-07-29T18:51:00.497Z,19.48
2023-07-29T18:53:27.608Z,19.41
2023-07-29T18:55:54.142Z,19.30
2023-07-29T18:58:21.329Z,19.39
2023-07-29T19:00:49.031Z,19.47
2023-07-29T19:03:15.907Z,19.61
2023-07-29T19:05:42.496Z,19.45
2023-07-29T19:08:09.549Z,19.44
2023-07-29T19:10:39.495Z,19.47
2023-07-29T19:13:07.112Z,19.29
2023-07-29T19:15:33.614Z,19.42
2023-07-29T19:18:00.288Z,19.44
2023-07-29T19:20:27.733Z,19.50
2023-07-29T19:22:54.229Z,19.43
2023-07-29T19:25:20.767Z,19.33
2023-07-29T19:27:47.340Z,19.24
2023-07-29T19:30:15.330Z,19.21
2023-07-29T19:32:42.015Z,19.19
2023-07-29T19:35:08.857Z,19.16
2023-07-29T19:37:35.395Z,19.14
2023-07-29T19:40:02.079Z,19.11
2023-07-29T19:42:28.633Z,19.13
2023-07-29T19:44:55.233Z,19.08
2023-07-29T19:47:21.886Z,19.08
2023-07-29T19:49:48.533Z,19.02
2023-07-29T19:52:15.169Z,18.97
2023-07-29T19:54:41.768Z,18.94
2023-07-29T19:57:08.379Z,18.89
2023-07-29T19:59:48.011Z,18.86
2023-07-29T20:02:16.052Z,18.78
2023-07-29T20:04:42.806Z,18.78
2023-07-29T20:07:09.313Z,18.70
2023-07-29T20:09:35.938Z,18.62
2023-07-29T20:12:02.510Z,18.56
2023-07-29T20:14:29.087Z,18.52
2023-07-29T20:16:55.752Z,18.49
2023-07-29T20:19:22.670Z,18.47
2023-07-29T20:21:49.329Z,18.37
2023-07-29T20:24:15.837Z,18.23
2023-07-29T20:26:42.431Z,18.28
2023-07-29T20:29:08.957Z,18.20
2023-07-29T20:31:35.973Z,18.23
2023-07-29T20:34:02.878Z,18.25
2023-07-29T20:36:30.892Z,18.24
2023-07-29T20:38:58.140Z,18.29
2023-07-29T20:41:25.978Z,18.31
2023-07-29T20:43:55.565Z,18.34
2023-07-29T20:46:26.512Z,18.32
2023-07-29T20:48:53.096Z,18.31
2023-07-29T20:51:20.051Z,18.31
2023-07-29T20:53:47.121Z,18.31
2023-07-29T20:56:14.440Z,18.29
2023-07-29T20:58:41.249Z,18.31
2023-07-29T21:01:07.906Z,18.29
2023-07-29T21:03:34.552Z,18.30
2023-07-29T21:06:01.241Z,18.21
2023-07-29T21:08:27.776Z,18.25
2023-07-29T21:10:54.606Z,18.22
2023-07-29T21:13:21.352Z,18.23
2023-07-29T21:15:51.530Z,18.02
2023-07-29T21:18:18.163Z,18.04
2023-07-29T21:20:44.788Z,18.07
2023-07-29T21:23:11.374Z,18.11
2023-07-29T21:25:37.911Z,18.15
2023-07-29T21:28:04.783Z,18.10
2023-07-29T21:30:31.729Z,18.04
2023-07-29T21:32:58.499Z,18.03
2023-07-29T21:35:25.137Z,18.03
2023-07-29T21:37:51.712Z,18.01
2023-07-29T21:40:18.400Z,18.00
2023-07-29T21:42:44.956Z,18.00
2023-07-29T21:45:11.709Z,17.96
2023-07-29T21:47:38.431Z,17.94
2023-07-29T21:50:05.301Z,17.96
2023-07-29T21:52:32.338Z,17.98
2023-07-29T21:54:58.932Z,17.83
2023-07-29T21:57:25.424Z,17.74
2023-07-29T21:59:51.985Z,17.74
2023-07-29T22:02:18.542Z,17.75
2023-07-29T22:04:45.726Z,17.78
2023-07-29T22:07:12.447Z,17.79
2023-07-29T22:09:39.096Z,17.70
2023-07-29T22:12:05.769Z,17.70
2023-07-29T22:14:33.326Z,17.72
2023-07-29T22:16:59.812Z,17.72
2023-07-29T22:19:26.304Z,17.69
2023-07-29T22:21:52.997Z,17.62
2023-07-29T22:24:20.123Z,17.64
2023-07-29T22:26:47.110Z,17.63
2023-07-29T22:29:14.903Z,17.63
2023-07-29T22:31:41.963Z,17.59
2023-07-29T22:34:08.782Z,17.56
2023-07-29T22:36:35.338Z,17.54
2023-07-29T22:39:01.836Z,17.56
2023-07-29T22:41:28.578Z,17.59
2023-07-29T22:43:55.103Z,17.62
2023-07-29T22:46:21.677Z,17.61
2023-07-29T22:48:48.914Z,17.53
2023-07-29T22:51:15.430Z,17.55
2023-07-29T22:53:43.435Z,17.56
2023-07-29T22:56:10.067Z,17.54
2023-07-29T22:58:36.662Z,17.54
2023-07-29T23:01:03.205Z,17.53
2023-07-29T23:03:29.854Z,17.51
2023-07-29T23:05:56.511Z,17.38
2023-07-29T23:08:23.081Z,17.40
2023-07-29T23:10:49.611Z,17.39
2023-07-29T23:13:16.137Z,17.50
2023-07-29T23:15:43.546Z,17.56
2023-07-29T23:18:10.188Z,17.62
2023-07-29T23:20:37.123Z,17.66
2023-07-29T23:23:04.750Z,17.69
2023-07-29T23:25:31.858Z,17.69
2023-07-29T23:27:58.540Z,17.67
2023-07-29T23:30:25.086Z,17.74
2023-07-29T23:32:51.658Z,17.77
2023-07-29T23:35:18.257Z,17.76
2023-07-29T23:37:44.774Z,17.77
2023-07-29T23:40:11.598Z,17.82
2023-07-29T23:42:38.215Z,17.79
2023-07-29T23:45:07.674Z,17.84
2023-07-29T23:47:34.344Z,17.83
2023-07-29T23:50:00.965Z,17.82
2023-07-29T23:52:27.632Z,17.74
2023-07-29T23:54:54.142Z,17.71
2023-07-29T23:57:20.680Z,17.66
2023-07-29T23:59:50.951Z,17.66
